Time;durP1;ratioP1;P1;durP2;ratioP2;P2;SDS_P1;SDS_P2;PMS_P1;PMS_P2;Temp;Humidity;BMP_temperature;BMP_pressure;BME280_temperature;BME280_humidity;BME280_pressure;Samples;Min_cycle;Max_cycle;Signal;HPM_P1;HPM_P2
2023/04/14 00:01:14;;;;;;;;;45.40;37.40;;;;;14.59;63.22;97802.88;6001885;29;96857;-63
2023/04/14 00:04:18;;;;;;;;;42.60;35.40;;;;;14.60;63.29;97805.31;6020879;29;96861;-64
2023/04/14 00:07:22;;;;;;;;;47.00;38.25;;;;;14.59;63.17;97806.41;6020577;29;96364;-63
2023/04/14 00:10:27;;;;;;;;;47.00;39.00;;;;;14.54;63.06;97800.16;6019247;29;96688;-63
2023/04/14 00:13:31;;;;;;;;;46.00;37.00;;;;;14.61;63.13;97796.06;6003197;29;97506;-64
2023/04/14 00:16:35;;;;;;;;;45.50;38.25;;;;;14.58;63.15;97804.78;6001273;29;96770;-64
2023/04/14 00:19:38;;;;;;;;;44.80;36.00;;;;;14.55;63.27;97799.09;6002959;29;96782;-63
2023/04/14 00:22:41;;;;;;;;;45.00;36.00;;;;;14.52;63.21;97797.72;6002931;29;96982;-63
2023/04/14 00:25:46;;;;;;;;;49.00;40.00;;;;;14.50;63.25;97790.97;6003213;29;96511;-63
2023/04/14 00:28:50;;;;;;;;;39.80;33.20;;;;;14.46;63.22;97793.41;5987673;29;96675;-63
2023/04/14 00:31:53;;;;;;;;;44.60;35.00;;;;;14.39;63.15;97783.91;6002104;29;98466;-63
2023/04/14 00:34:58;;;;;;;;;43.00;35.60;;;;;14.49;63.22;97789.31;6003089;29;96295;-63
2023/04/14 00:38:02;;;;;;;;;42.60;34.00;;;;;14.49;62.94;97795.56;6019298;29;96281;-62
2023/04/14 00:41:07;;;;;;;;;42.60;34.00;;;;;14.50;63.03;97801.81;5986794;29;96668;-63
2023/04/14 00:44:10;;;;;;;;;44.40;35.00;;;;;14.49;62.90;97789.31;6003099;29;96471;-62
2023/04/14 00:47:13;;;;;;;;;43.25;35.75;;;;;14.45;62.90;97788.25;6018800;29;96543;-64
2023/04/14 00:50:18;;;;;;;;;44.00;35.40;;;;;14.49;62.70;97792.84;5986942;29;98574;-64
2023/04/14 00:53:21;;;;;;;;;41.00;35.00;;;;;14.47;62.34;97777.91;6019253;29;96658;-64
2023/04/14 00:56:28;;;;;;;;;47.00;36.00;;;;;14.44;62.33;97778.47;6002357;29;98838;-62
2023/04/14 00:59:31;;;;;;;;;41.40;35.00;;;;;14.40;62.38;97778.22;6001332;29;96387;-64
2023/04/14 01:02:35;;;;;;;;;43.50;35.00;;;;;14.36;62.58;97777.16;6019369;29;97151;-62
2023/04/14 01:05:39;;;;;;;;;41.40;35.20;;;;;14.32;62.54;97771.41;6017657;29;96452;-63
2023/04/14 01:08:42;;;;;;;;;45.00;36.00;;;;;14.28;62.60;97770.34;6002724;29;96281;-64
2023/04/14 01:12:01;;;;;;;;;45.60;38.00;;;;;14.24;62.82;97771.16;6013071;28;96580;-64
2023/04/14 01:15:11;;;;;;;;;43.80;35.00;;;;;14.23;62.36;97767.63;6041842;28;96313;-63
2023/04/14 01:18:22;;;;;;;;;45.20;37.20;;;;;14.20;62.42;97768.19;6026449;28;96649;-63
2023/04/14 01:21:38;;;;;;;;;38.50;33.00;;;;;14.20;62.58;97767.38;6012521;29;96271;-63
2023/04/14 01:25:10;;;;;;;;;44.20;35.60;;;;;14.17;62.77;97760.56;5998399;29;96398;-62
2023/04/14 01:28:39;;;;;;;;;43.80;34.80;;;;;14.11;62.94;97758.97;5987026;29;96655;-63
2023/04/14 01:31:48;;;;;;;;;42.00;35.25;;;;;14.01;63.07;97744.59;5974052;29;96844;-64
2023/04/14 01:34:56;;;;;;;;;39.00;32.80;;;;;14.03;63.15;97747.84;5985227;29;97251;-62
2023/04/14 01:38:08;;;;;;;;;39.50;33.00;;;;;14.06;62.95;97744.59;5985684;29;96306;-62
2023/04/14 01:41:15;;;;;;;;;44.60;35.00;;;;;14.01;62.81;97745.41;6001707;29;96835;-63
2023/04/14 01:44:21;;;;;;;;;43.60;35.40;;;;;14.12;62.66;97754.38;5994946;29;97488;-63
2023/04/14 01:47:28;;;;;;;;;41.20;34.80;;;;;14.13;62.73;97747.84;5999147;29;96297;-63
2023/04/14 01:50:35;;;;;;;;;40.00;33.00;;;;;14.06;62.76;97739.19;6005160;28;96256;-63
2023/04/14 01:53:42;;;;;;;;;38.20;32.00;;;;;14.09;62.94;97747.56;5990405;29;96652;-63
2023/04/14 01:56:47;;;;;;;;;39.00;32.40;;;;;14.13;62.79;97735.09;6005231;29;98970;-63
2023/04/14 01:59:56;;;;;;;;;37.40;32.00;;;;;14.15;62.88;97742.97;5981462;29;96697;-63
2023/04/14 02:03:04;;;;;;;;;39.00;33.00;;;;;14.16;63.08;97737.28;5998759;29;96364;-63
2023/04/14 02:06:10;;;;;;;;;35.40;31.60;;;;;14.15;62.73;97737.56;5982754;29;96793;-63
2023/04/14 02:09:15;;;;;;;;;43.60;35.00;;;;;14.19;63.00;97733.22;5988311;29;96872;-64
2023/04/14 02:12:20;;;;;;;;;37.60;33.00;;;;;14.19;62.53;97735.91;5998008;29;96562;-63
2023/04/14 02:15:27;;;;;;;;;36.00;31.60;;;;;14.18;62.80;97723.44;5981948;29;96984;-63
2023/04/14 02:18:33;;;;;;;;;34.00;30.00;;;;;14.18;62.63;97716.13;5997917;29;96819;-62
2023/04/14 02:21:36;;;;;;;;;37.80;32.00;;;;;14.11;62.79;97706.66;5998249;29;96390;-63
2023/04/14 02:24:40;;;;;;;;;39.25;33.00;;;;;14.11;62.86;97695.81;5990289;29;96566;-62
2023/04/14 02:27:49;;;;;;;;;41.00;32.50;;;;;14.21;62.84;97712.06;5997533;29;98572;-63
2023/04/14 02:30:56;;;;;;;;;42.80;33.20;;;;;14.11;62.54;97693.13;5998827;29;96950;-63
2023/04/14 02:34:05;;;;;;;;;37.50;31.75;;;;;14.23;62.47;97705.28;5999282;29;96527;-62
2023/04/14 02:37:19;;;;;;;;;37.00;32.40;;;;;14.18;62.47;97701.75;5989792;29;96627;-63
2023/04/14 02:40:29;;;;;;;;;35.80;31.40;;;;;14.15;62.37;97702.31;6003987;29;97708;-63
2023/04/14 02:43:41;;;;;;;;;35.00;30.00;;;;;14.07;62.73;97700.16;5996684;29;96708;-63
2023/04/14 02:46:56;;;;;;;;;39.20;32.20;;;;;14.01;62.94;97703.97;5997177;29;96833;-63
2023/04/14 02:50:04;;;;;;;;;37.75;32.00;;;;;13.98;63.02;97699.88;5997998;29;96442;-63
2023/04/14 02:53:10;;;;;;;;;38.00;32.00;;;;;13.97;63.11;97687.44;5997600;29;96394;-64
2023/04/14 02:56:15;;;;;;;;;38.40;30.80;;;;;13.97;62.96;97695.56;5996622;29;96676;-64
2023/04/14 02:59:22;;;;;;;;;34.00;30.00;;;;;13.97;63.11;97697.47;5985420;29;96672;-63
2023/04/14 03:02:33;;;;;;;;;35.60;32.00;;;;;13.99;63.21;97692.56;5987208;29;98538;-62
2023/04/14 03:05:44;;;;;;;;;36.40;32.00;;;;;13.96;63.08;97676.88;5988884;29;100041;-63
2023/04/14 03:08:50;;;;;;;;;34.20;30.60;;;;;13.95;63.06;97670.63;6000247;29;96645;-64
2023/04/14 03:11:57;;;;;;;;;42.00;33.00;;;;;13.97;63.40;97682.03;5987962;29;98365;-64
2023/04/14 03:15:02;;;;;;;;;38.40;32.00;;;;;14.01;63.44;97677.69;5984650;29;96687;-64
2023/04/14 03:18:06;;;;;;;;;34.00;30.20;;;;;14.02;63.40;97670.38;6009905;29;96166;-62
2023/04/14 03:21:13;;;;;;;;;39.60;33.00;;;;;14.05;63.33;97680.66;5986964;28;97424;-64
2023/04/14 03:24:23;;;;;;;;;40.25;33.50;;;;;14.05;63.29;97678.75;6015245;28;96423;-63
2023/04/14 03:27:30;;;;;;;;;38.50;33.00;;;;;13.93;63.76;97683.63;5979299;28;98556;-62
2023/04/14 03:30:36;;;;;;;;;42.00;34.00;;;;;13.78;63.87;97665.50;5977626;29;98685;-65
2023/04/14 03:33:44;;;;;;;;;40.40;33.00;;;;;13.94;63.81;97682.56;5995816;29;96543;-63
2023/04/14 03:36:55;;;;;;;;;38.00;33.00;;;;;13.95;63.97;97670.63;5980358;29;97183;-63
2023/04/14 03:40:04;;;;;;;;;37.00;32.00;;;;;14.00;64.07;97664.41;5986156;28;96729;-63
2023/04/14 03:43:11;;;;;;;;;35.00;32.00;;;;;14.07;63.78;97659.53;6006673;28;96519;-62
2023/04/14 03:46:16;;;;;;;;;36.00;30.00;;;;;14.13;63.36;97656.50;6005944;29;96762;-65
2023/04/14 03:49:24;;;;;;;;;31.50;27.75;;;;;14.15;63.31;97664.38;6008740;28;98713;-63
2023/04/14 03:52:34;;;;;;;;;34.80;31.80;;;;;14.09;63.31;97663.56;6035025;28;96371;-62
2023/04/14 03:55:38;;;;;;;;;32.00;28.50;;;;;14.19;63.03;97665.44;6034695;28;96547;-63
2023/04/14 03:58:45;;;;;;;;;31.20;28.00;;;;;14.13;62.97;97661.94;5990498;29;96518;-63
2023/04/14 04:01:49;;;;;;;;;28.75;26.00;;;;;14.20;63.05;97680.63;6008886;29;96708;-62
2023/04/14 04:04:54;;;;;;;;;31.75;29.00;;;;;14.17;63.37;97681.97;6003097;29;96357;-63
2023/04/14 04:08:02;;;;;;;;;28.20;25.80;;;;;14.27;63.21;97673.00;5987964;29;97216;-62
2023/04/14 04:11:07;;;;;;;;;28.20;26.20;;;;;14.30;63.00;97659.72;6002962;29;96286;-63
2023/04/14 04:14:13;;;;;;;;;31.20;29.20;;;;;14.37;62.93;97669.50;5984402;28;96705;-66
2023/04/14 04:17:22;;;;;;;;;31.00;28.60;;;;;14.36;62.72;97666.00;6018688;28;96936;-65
2023/04/14 04:20:27;;;;;;;;;28.00;26.50;;;;;14.41;62.24;97667.88;5979204;29;97621;-65
2023/04/14 04:23:34;;;;;;;;;32.50;28.50;;;;;14.33;61.84;97664.59;6015354;28;96360;-65
2023/04/14 04:26:38;;;;;;;;;34.25;29.25;;;;;14.02;62.32;97627.00;6000293;29;97476;-65
2023/04/14 04:29:43;;;;;;;;;33.60;30.00;;;;;14.41;62.20;97679.53;5990761;29;97444;-65
2023/04/14 04:32:46;;;;;;;;;30.80;29.00;;;;;14.29;62.16;97677.06;5987731;28;98493;-65
2023/04/14 04:35:51;;;;;;;;;29.00;27.00;;;;;14.26;62.59;97674.13;6006782;29;97399;-65
2023/04/14 04:38:59;;;;;;;;;31.25;29.00;;;;;14.27;62.83;97681.13;5998852;29;98517;-65
2023/04/14 04:42:07;;;;;;;;;31.00;28.50;;;;;14.24;62.68;97673.56;6000072;29;96625;-65
2023/04/14 04:45:12;;;;;;;;;33.33;29.33;;;;;14.26;62.40;97672.22;6011057;28;96560;-64
2023/04/14 04:48:16;;;;;;;;;33.00;27.00;;;;;14.25;62.65;97677.91;6006348;29;96435;-65
2023/04/14 04:51:20;;;;;;;;;35.00;30.00;;;;;14.35;62.50;97677.88;6007300;29;96797;-65
2023/04/14 04:54:25;;;;;;;;;28.20;25.00;;;;;14.35;62.49;97674.34;5985636;29;98585;-65
2023/04/14 04:57:29;;;;;;;;;31.40;26.00;;;;;14.41;62.33;97671.41;5991453;29;97144;-64
2023/04/14 05:00:32;;;;;;;;;31.00;27.80;;;;;14.44;62.48;97680.88;5998997;29;98928;-64
2023/04/14 05:03:36;;;;;;;;;31.00;28.80;;;;;14.51;62.22;97665.13;6011661;28;96915;-64
2023/04/14 05:06:40;;;;;;;;;33.60;29.60;;;;;14.58;61.67;97644.75;6017638;29;96533;-64
2023/04/14 05:09:44;;;;;;;;;29.60;27.40;;;;;14.78;61.41;97662.84;6017528;29;96340;-64
2023/04/14 05:12:48;;;;;;;;;32.60;29.40;;;;;14.82;60.94;97644.91;6026782;28;97093;-64
2023/04/14 05:15:51;;;;;;;;;33.50;30.00;;;;;14.91;60.69;97645.94;6009976;29;96316;-64
2023/04/14 05:18:55;;;;;;;;;32.00;30.00;;;;;15.00;60.67;97641.53;5997856;29;96646;-64
2023/04/14 05:21:58;;;;;;;;;35.00;30.20;;;;;15.08;60.16;97646.41;6002065;29;97225;-64
2023/04/14 05:25:03;;;;;;;;;37.00;32.00;;;;;14.99;60.31;97636.41;6021788;29;96414;-64
2023/04/14 05:28:07;;;;;;;;;30.80;29.00;;;;;15.00;60.19;97636.13;6013008;29;96418;-64
2023/04/14 05:31:10;;;;;;;;;31.00;28.40;;;;;14.77;60.23;97631.38;5989407;28;98641;-64
2023/04/14 05:34:14;;;;;;;;;35.80;30.40;;;;;14.97;60.29;97616.88;5988249;29;96460;-64
2023/04/14 05:37:17;;;;;;;;;34.40;30.40;;;;;15.03;60.36;97613.06;5986390;29;96835;-64
2023/04/14 05:40:22;;;;;;;;;36.00;31.00;;;;;14.91;59.84;97602.53;6023272;29;96495;-64
2023/04/14 05:43:26;;;;;;;;;33.00;30.00;;;;;14.87;60.25;97587.09;6023994;29;96526;-64
2023/04/14 05:46:29;;;;;;;;;30.25;29.00;;;;;15.03;60.05;97599.47;6023453;29;97610;-64
2023/04/14 05:49:32;;;;;;;;;35.20;30.00;;;;;15.12;59.72;97601.31;6006424;29;96355;-64
2023/04/14 05:52:36;;;;;;;;;38.00;32.00;;;;;15.26;59.23;97592.53;6022903;29;96341;-64
2023/04/14 05:55:41;;;;;;;;;36.60;31.00;;;;;15.10;58.93;97564.69;6023256;29;96866;-64
2023/04/14 05:58:44;;;;;;;;;36.00;31.50;;;;;15.48;59.13;97587.47;6023062;29;96380;-64
2023/04/14 06:01:47;;;;;;;;;32.00;29.40;;;;;15.60;58.59;97588.75;5990132;29;96777;-64
2023/04/14 06:04:51;;;;;;;;;34.50;29.00;;;;;15.93;58.68;97578.91;6006109;29;96856;-64
2023/04/14 06:07:54;;;;;;;;;33.00;30.60;;;;;16.10;57.54;97580.38;5989129;29;96685;-64
2023/04/14 06:10:59;;;;;;;;;32.80;30.00;;;;;16.06;57.12;97579.31;5999788;29;96422;-64
2023/04/14 06:14:04;;;;;;;;;38.00;31.00;;;;;16.24;56.91;97589.44;5982321;29;98841;-64
2023/04/14 06:17:07;;;;;;;;;34.40;30.00;;;;;16.41;55.95;97587.91;5966783;29;97291;-64
2023/04/14 06:20:11;;;;;;;;;32.00;29.00;;;;;16.53;55.38;97592.09;5982558;29;96876;-64
2023/04/14 06:23:15;;;;;;;;;34.40;29.20;;;;;16.77;55.14;97592.88;5993028;29;96412;-64
2023/04/14 06:26:21;;;;;;;;;36.25;30.00;;;;;16.93;54.26;97601.66;5989929;29;96955;-64
2023/04/14 06:29:24;;;;;;;;;40.00;33.00;;;;;17.09;53.94;97595.72;6022335;29;96532;-64
2023/04/14 06:32:27;;;;;;;;;34.00;30.00;;;;;17.17;53.08;97602.41;6022554;29;96380;-64
2023/04/14 06:35:31;;;;;;;;;31.60;26.60;;;;;17.44;52.41;97612.63;6021113;29;96470;-64
2023/04/14 06:38:36;;;;;;;;;37.40;32.00;;;;;17.45;52.10;97604.13;6022909;29;96377;-64
2023/04/14 06:41:40;;;;;;;;;33.50;30.00;;;;;17.78;51.58;97598.72;6005531;29;98600;-64
2023/04/14 06:44:47;;;;;;;;;32.00;29.40;;;;;18.13;51.27;97587.97;6006122;29;97088;-64
2023/04/14 06:47:51;;;;;;;;;33.00;30.00;;;;;18.39;50.50;97580.09;6022269;29;96953;-64
2023/04/14 06:50:55;;;;;;;;;37.20;29.80;;;;;18.55;48.50;97576.00;6022344;29;96481;-64
2023/04/14 06:53:58;;;;;;;;;27.00;24.40;;;;;18.48;48.17;97569.28;5989709;29;98562;-64
2023/04/14 06:57:04;;;;;;;;;32.33;28.33;;;;;18.56;47.22;97553.03;6005004;29;96760;-64
2023/04/14 07:00:09;;;;;;;;;31.00;28.60;;;;;18.59;47.22;97555.16;6021789;29;96238;-64
2023/04/14 07:03:13;;;;;;;;;28.00;25.00;;;;;18.58;47.14;97556.25;5998868;28;96376;-64
2023/04/14 07:06:17;;;;;;;;;26.40;25.00;;;;;18.56;47.28;97544.84;6001691;29;96693;-64
2023/04/14 07:09:21;;;;;;;;;29.80;25.40;;;;;18.77;47.24;97538.94;6020480;29;96373;-64
2023/04/14 07:12:26;;;;;;;;;23.00;21.40;;;;;18.69;45.34;97534.19;6020321;29;96383;-64
2023/04/14 07:15:29;;;;;;;;;22.60;21.60;;;;;18.92;45.69;97524.94;6003344;29;97852;-64
2023/04/14 07:18:33;;;;;;;;;23.20;20.60;;;;;19.16;43.69;97539.09;6019780;29;96276;-64
2023/04/14 07:21:37;;;;;;;;;22.25;21.25;;;;;19.70;43.80;97538.06;5986923;29;98914;-64
2023/04/14 07:24:40;;;;;;;;;25.00;22.60;;;;;19.60;42.55;97541.06;5987153;29;96652;-64
2023/04/14 07:27:48;;;;;;;;;26.60;25.00;;;;;19.99;43.27;97547.72;6018894;29;96943;-64
2023/04/14 07:31:09;;;;;;;;;22.50;20.50;;;;;19.51;42.31;97533.91;6004761;29;96464;-64
2023/04/14 07:34:12;;;;;;;;;26.00;25.00;;;;;20.06;43.14;97556.25;6021769;29;96376;-64
2023/04/14 07:37:16;;;;;;;;;25.60;24.60;;;;;20.28;42.46;97550.72;6004751;29;96335;-64
2023/04/14 07:40:19;;;;;;;;;21.80;20.00;;;;;20.12;41.48;97552.28;6021919;29;96261;-65
2023/04/14 07:43:24;;;;;;;;;25.00;23.00;;;;;20.12;41.74;97549.53;6020215;29;96669;-64
2023/04/14 07:46:27;;;;;;;;;27.75;22.75;;;;;19.62;42.39;97522.41;6021080;29;96253;-64
2023/04/14 07:49:31;;;;;;;;;23.80;19.60;;;;;19.72;42.74;97535.81;6021304;29;96317;-64
2023/04/14 07:52:34;;;;;;;;;27.40;25.00;;;;;19.59;42.87;97547.66;6021649;29;96487;-64
2023/04/14 07:55:38;;;;;;;;;21.00;19.00;;;;;19.49;43.31;97539.72;6004814;29;97296;-64
2023/04/14 07:58:43;;;;;;;;;25.50;24.00;;;;;19.58;42.96;97543.31;6021989;29;96857;-64
2023/04/14 08:01:47;;;;;;;;;19.40;19.40;;;;;19.44;42.61;97529.72;6004486;29;96653;-64
2023/04/14 08:04:50;;;;;;;;;20.80;18.40;;;;;19.51;43.08;97529.25;6022069;29;96943;-64
2023/04/14 08:07:53;;;;;;;;;21.20;20.00;;;;;19.52;42.94;97524.59;6005672;29;96543;-64
2023/04/14 08:10:57;;;;;;;;;25.80;20.80;;;;;19.54;42.52;97520.44;6021709;29;97053;-64
2023/04/14 08:14:03;;;;;;;;;21.50;20.00;;;;;19.49;42.76;97512.38;6021051;29;96620;-64
2023/04/14 08:17:06;;;;;;;;;19.00;18.60;;;;;19.59;42.03;97523.06;6021030;29;96311;-64
2023/04/14 08:20:10;;;;;;;;;16.40;15.00;;;;;19.70;41.26;97516.19;6003272;29;99023;-64
2023/04/14 08:23:13;;;;;;;;;14.40;12.80;;;;;19.77;40.17;97515.75;6021256;29;96763;-64
2023/04/14 08:26:16;;;;;;;;;14.00;13.00;;;;;19.65;38.94;97505.38;6004001;29;97564;-64
2023/04/14 08:29:21;;;;;;;;;12.60;11.00;;;;;19.79;39.81;97478.75;6021069;29;96789;-64
2023/04/14 08:32:25;;;;;;;;;11.00;11.00;;;;;19.77;37.60;97502.88;6020993;29;96372;-64
2023/04/14 08:35:30;;;;;;;;;11.00;10.00;;;;;19.83;37.43;97504.38;6004792;29;96625;-64
2023/04/14 08:38:44;;;;;;;;;15.00;13.00;;;;;19.65;38.33;97496.38;6021875;29;96812;-64
2023/04/14 08:41:52;;;;;;;;;13.00;13.00;;;;;19.52;38.06;97498.06;6004278;29;98525;-64
2023/04/14 08:44:56;;;;;;;;;11.50;10.50;;;;;19.53;39.74;97490.69;6021987;29;96535;-64
2023/04/14 08:48:01;;;;;;;;;13.75;11.75;;;;;19.61;40.15;97495.38;6021643;29;96388;-64
2023/04/14 08:51:10;;;;;;;;;12.00;12.00;;;;;19.55;39.60;97497.44;6021150;29;96409;-64
2023/04/14 08:54:16;;;;;;;;;21.00;19.00;;;;;19.57;39.87;97494.41;6004631;29;96366;-64
2023/04/14 08:57:22;;;;;;;;;13.00;12.50;;;;;19.54;39.68;97481.38;6021457;29;96405;-64
2023/04/14 09:00:27;;;;;;;;;14.60;13.60;;;;;19.43;39.23;97497.19;6020233;29;96254;-64
2023/04/14 09:03:31;;;;;;;;;13.40;12.00;;;;;19.50;39.96;97492.09;6004087;29;96690;-64
2023/04/14 09:06:35;;;;;;;;;13.00;12.60;;;;;19.70;40.29;97494.31;6003877;29;97336;-64
2023/04/14 09:09:38;;;;;;;;;13.00;12.00;;;;;19.90;39.36;97495.69;6003256;29;96594;-64
2023/04/14 09:12:42;;;;;;;;;8.00;7.00;;;;;19.63;36.88;97488.50;5999527;29;96670;-64
2023/04/14 09:15:47;;;;;;;;;8.00;8.00;;;;;19.21;36.27;97492.53;6019483;29;96352;-64
2023/04/14 09:18:52;;;;;;;;;7.00;6.40;;;;;18.97;36.53;97481.94;6003043;29;96682;-64
2023/04/14 09:21:55;;;;;;;;;10.00;9.00;;;;;18.96;36.97;97482.25;6002716;29;97022;-64
2023/04/14 09:25:00;;;;;;;;;7.20;7.00;;;;;19.00;36.73;97488.72;6018818;29;96914;-64
2023/04/14 09:28:03;;;;;;;;;9.60;8.60;;;;;19.32;37.52;97495.84;6019023;29;96501;-64
2023/04/14 09:31:09;;;;;;;;;8.00;8.00;;;;;19.44;36.54;97483.25;6002598;29;97116;-64
2023/04/14 09:34:17;;;;;;;;;8.60;7.00;;;;;19.19;36.28;97480.31;6019128;29;96364;-64
2023/04/14 09:37:21;;;;;;;;;8.00;7.60;;;;;19.36;35.76;97478.50;6016582;29;96322;-64
2023/04/14 09:40:28;;;;;;;;;6.00;6.00;;;;;19.58;36.14;97468.69;6001601;29;96869;-64
2023/04/14 09:43:32;;;;;;;;;6.40;6.40;;;;;19.73;35.47;97481.94;6019087;29;97083;-64
2023/04/14 09:46:37;;;;;;;;;6.80;6.80;;;;;19.85;34.76;97466.53;6001252;29;98726;-64
2023/04/14 09:49:56;;;;;;;;;7.00;7.00;;;;;19.86;34.27;97464.63;6018484;29;96433;-64
2023/04/14 09:53:04;;;;;;;;;6.80;6.20;;;;;19.80;33.76;97466.69;6021940;28;96423;-64
2023/04/14 09:56:09;;;;;;;;;5.00;4.80;;;;;19.75;34.37;97452.34;5987878;29;96669;-64
2023/04/14 09:59:12;;;;;;;;;7.00;7.00;;;;;19.90;34.73;97454.66;6002661;29;96282;-64
2023/04/14 10:02:17;;;;;;;;;8.00;7.40;;;;;20.18;33.44;97444.31;6002542;29;98513;-64
2023/04/14 10:05:25;;;;;;;;;7.60;7.60;;;;;20.47;33.91;97435.50;6020220;29;96637;-64
2023/04/14 10:08:35;;;;;;;;;9.00;8.80;;;;;20.68;33.40;97436.47;6002914;29;96896;-64
2023/04/14 10:11:39;;;;;;;;;7.60;6.60;;;;;20.76;32.98;97441.16;6023240;29;96376;-64
2023/04/14 10:14:44;;;;;;;;;8.80;8.20;;;;;21.03;32.38;97429.84;6006781;29;96540;-64
2023/04/14 10:17:48;;;;;;;;;7.25;7.25;;;;;21.26;32.99;97435.19;6023816;29;97060;-64
2023/04/14 10:20:52;;;;;;;;;9.00;9.00;;;;;21.20;31.21;97433.72;6026413;28;96317;-64
2023/04/14 10:23:56;;;;;;;;;9.00;7.00;;;;;21.18;30.60;97428.56;6045731;28;96474;-64
2023/04/14 10:27:02;;;;;;;;;6.60;6.60;;;;;21.33;31.45;97441.75;6384422;23;98699;-62
2023/04/14 10:30:08;;;;;;;;;5.40;5.00;;;;;21.00;31.06;97410.53;6042167;28;98764;-62
2023/04/14 10:37:12;;;;;;;;;8.00;8.00;;;;;20.87;31.68;97422.44;6222744;23;97733;-62
2023/04/14 10:40:15;;;;;;;;;6.60;5.00;;;;;20.70;31.27;97417.81;6052858;28;96301;-62
2023/04/14 10:43:20;;;;;;;;;5.20;5.20;;;;;20.92;31.46;97416.81;6068207;28;96274;-62
2023/04/14 10:46:23;;;;;;;;;9.00;8.00;;;;;20.84;30.70;97414.88;6072924;28;96071;-62
2023/04/14 10:49:31;;;;;;;;;5.50;5.00;;;;;20.90;30.21;97413.59;6024858;28;98420;-62
2023/04/14 10:52:36;;;;;;;;;7.60;7.00;;;;;20.54;29.84;97403.78;6052322;28;96329;-63
2023/04/14 10:55:45;;;;;;;;;7.00;6.60;;;;;20.80;31.11;97406.53;6749411;23;98933;-62
2023/04/14 10:58:55;;;;;;;;;6.00;5.00;;;;;20.47;30.13;97405.41;6010566;29;96353;-63
2023/04/14 11:01:59;;;;;;;;;7.00;7.00;;;;;20.46;30.06;97406.53;6025971;29;96251;-63
2023/04/14 11:05:05;;;;;;;;;7.20;6.20;;;;;20.60;30.33;97398.97;6025797;29;96398;-62
2023/04/14 11:08:14;;;;;;;;;8.00;8.00;;;;;20.64;30.05;97411.69;5986841;29;96686;-63
2023/04/14 11:11:19;;;;;;;;;4.00;4.00;;;;;20.72;30.10;97401.88;6017562;29;96285;-63
2023/04/14 11:14:30;;;;;;;;;5.00;5.00;;;;;20.72;30.29;97394.44;6008446;28;96345;-62
2023/04/14 11:17:38;;;;;;;;;5.60;5.60;;;;;20.74;30.52;97366.72;5991480;29;96485;-63
2023/04/14 11:20:42;;;;;;;;;5.00;5.00;;;;;20.88;30.05;97397.47;6007802;29;98536;-62
2023/04/14 11:23:47;;;;;;;;;6.00;5.75;;;;;21.34;30.19;97409.66;6025997;28;96346;-62
2023/04/14 11:26:54;;;;;;;;;6.00;6.00;;;;;21.45;28.83;97400.75;6026462;29;96254;-63
2023/04/14 11:29:59;;;;;;;;;8.00;7.00;;;;;21.59;29.83;97384.91;6010940;29;96444;-62
2023/04/14 11:33:03;;;;;;;;;4.00;4.00;;;;;21.82;29.73;97382.69;6244645;23;98253;-62
2023/04/14 11:36:08;;;;;;;;;7.00;7.00;;;;;21.90;29.29;97381.03;6032853;28;96928;-62
2023/04/14 11:39:15;;;;;;;;;6.40;6.00;;;;;21.89;28.97;97379.44;6002740;29;96755;-62
2023/04/14 11:42:20;;;;;;;;;6.00;6.00;;;;;21.72;28.64;97374.03;6015600;29;97055;-62
2023/04/14 11:45:27;;;;;;;;;6.00;5.00;;;;;21.37;28.73;97360.47;6026870;29;96242;-62
2023/04/14 11:48:31;;;;;;;;;4.00;3.80;;;;;21.43;28.48;97381.09;6028916;28;96098;-63
2023/04/14 11:51:34;;;;;;;;;5.00;5.00;;;;;21.81;29.11;97377.53;6049590;28;96405;-63
2023/04/14 11:54:39;;;;;;;;;5.00;5.00;;;;;21.75;28.60;97371.41;6033548;29;96493;-63
2023/04/14 11:57:44;;;;;;;;;11.00;10.00;;;;;21.88;28.96;97372.34;6049972;29;96111;-63
2023/04/14 12:00:49;;;;;;;;;6.00;6.00;;;;;22.09;29.03;97369.66;6048898;29;96869;-62
2023/04/14 12:03:54;;;;;;;;;6.00;6.00;;;;;22.35;28.26;97368.31;5998500;29;97325;-62
2023/04/14 12:06:58;;;;;;;;;5.80;5.40;;;;;22.53;28.57;97365.47;5987006;29;97391;-62
2023/04/14 12:10:04;;;;;;;;;8.00;7.50;;;;;22.79;28.60;97355.84;5972821;29;96328;-63
2023/04/14 12:13:10;;;;;;;;;7.00;7.00;;;;;22.94;26.24;97353.59;6010602;29;96855;-63
2023/04/14 12:16:15;;;;;;;;;6.00;6.00;;;;;23.35;26.86;97355.44;6011745;28;98435;-63
2023/04/14 12:19:19;;;;;;;;;8.00;8.00;;;;;23.56;26.31;97350.66;6020758;29;96343;-63
2023/04/14 12:22:26;;;;;;;;;9.50;7.75;;;;;23.32;26.97;97343.97;6038623;28;96275;-63
2023/04/14 12:25:33;;;;;;;;;6.20;6.00;;;;;23.17;26.90;97344.63;6018418;28;98564;-63
2023/04/14 12:28:38;;;;;;;;;7.00;6.40;;;;;23.19;26.55;97344.28;6021286;28;96787;-63
2023/04/14 12:31:42;;;;;;;;;6.40;6.40;;;;;23.34;26.83;97332.63;5996805;29;96572;-63
2023/04/14 12:34:54;;;;;;;;;6.00;6.00;;;;;22.93;27.34;97322.56;6011109;29;97097;-63
2023/04/14 12:37:57;;;;;;;;;4.60;4.60;;;;;22.37;27.11;97322.13;6013356;29;96168;-63
2023/04/14 12:41:02;;;;;;;;;6.50;6.50;;;;;22.22;27.59;97302.72;6011720;29;96244;-62
2023/04/14 12:44:14;;;;;;;;;8.00;7.20;;;;;22.25;28.04;97324.00;6024561;29;96212;-62
2023/04/14 12:47:27;;;;;;;;;7.40;7.00;;;;;22.43;28.44;97303.50;6006228;29;96858;-62
2023/04/14 12:50:32;;;;;;;;;6.00;5.25;;;;;22.19;27.69;97301.44;6005603;29;96343;-62
2023/04/14 12:53:35;;;;;;;;;6.67;6.67;;;;;22.40;28.48;97296.75;6025880;29;96389;-62
2023/04/14 12:56:42;;;;;;;;;8.00;7.60;;;;;22.45;28.34;97295.72;6018973;28;96297;-62
2023/04/14 12:59:45;;;;;;;;;8.40;7.40;;;;;22.27;28.11;97291.53;5990913;29;98698;-62
2023/04/14 13:02:49;;;;;;;;;10.00;9.60;;;;;22.26;28.58;97296.22;6009941;29;96957;-62
2023/04/14 13:05:53;;;;;;;;;8.00;7.25;;;;;22.17;28.31;97287.25;5991834;29;98972;-62
2023/04/14 13:08:57;;;;;;;;;8.60;8.60;;;;;22.09;28.76;97277.13;6022498;29;96310;-62
2023/04/14 13:12:02;;;;;;;;;7.00;6.50;;;;;21.84;28.96;97272.63;6009833;29;96295;-62
2023/04/14 13:15:06;;;;;;;;;9.00;7.40;;;;;22.02;29.66;97271.38;5990933;29;98443;-62
2023/04/14 13:18:10;;;;;;;;;7.00;6.25;;;;;22.03;29.13;97265.56;5989634;29;97622;-62
2023/04/14 13:21:13;;;;;;;;;6.00;6.00;;;;;21.73;29.61;97271.41;6001137;29;96260;-62
2023/04/14 13:24:17;;;;;;;;;7.00;7.00;;;;;21.56;29.38;97240.22;6007594;29;98493;-62
2023/04/14 13:27:21;;;;;;;;;7.40;7.00;;;;;21.58;29.72;97248.94;6001569;29;96366;-62
2023/04/14 13:30:24;;;;;;;;;9.00;9.00;;;;;21.21;30.07;97262.69;6011416;29;96267;-62
2023/04/14 13:33:28;;;;;;;;;6.60;6.00;;;;;21.15;30.84;97264.81;6007647;29;96379;-62
2023/04/14 13:36:31;;;;;;;;;6.00;6.00;;;;;21.12;31.14;97263.47;6018536;29;98350;-62
2023/04/14 13:39:34;;;;;;;;;7.00;7.00;;;;;21.10;31.28;97265.78;6016978;29;96397;-62
2023/04/14 13:42:39;;;;;;;;;6.00;6.00;;;;;21.20;31.42;97264.63;6021452;29;96343;-62
2023/04/14 13:45:42;;;;;;;;;8.60;8.00;;;;;21.33;31.08;97260.84;6012720;29;96381;-62
2023/04/14 13:48:46;;;;;;;;;7.40;6.40;;;;;21.41;31.15;97251.75;6027529;29;96819;-62
2023/04/14 13:51:49;;;;;;;;;6.00;6.00;;;;;21.51;31.18;97259.59;6011290;29;96331;-62
2023/04/14 13:54:53;;;;;;;;;7.00;6.50;;;;;21.44;30.08;97245.63;5992700;29;96646;-62
2023/04/14 13:57:57;;;;;;;;;7.60;7.00;;;;;21.45;29.67;97247.22;6020462;29;96336;-62
2023/04/14 14:01:09;;;;;;;;;6.00;5.00;;;;;21.39;29.90;97243.06;6017703;28;96859;-62
2023/04/14 14:04:12;;;;;;;;;9.00;8.33;;;;;21.36;29.80;97256.63;5996169;28;98955;-62
2023/04/14 14:07:17;;;;;;;;;8.40;8.00;;;;;21.24;30.20;97253.78;6038051;28;96345;-62
2023/04/14 14:10:21;;;;;;;;;7.00;7.00;;;;;21.23;30.38;97253.00;6012116;29;96371;-62
2023/04/14 14:13:25;;;;;;;;;9.00;8.40;;;;;21.12;30.14;97246.25;6020486;28;96498;-62
2023/04/14 14:16:29;;;;;;;;;9.00;8.00;;;;;20.81;30.29;97243.00;6031254;29;97058;-63
2023/04/14 14:19:38;;;;;;;;;8.25;8.00;;;;;20.97;31.00;97253.06;6004525;29;96757;-62
2023/04/14 14:22:42;;;;;;;;;9.00;9.00;;;;;20.87;30.51;97261.66;6018488;29;96286;-62